Aquilla, Texas
Current Conditions -  °F | °C
As of 10:51 AM on Sunday 21 Dec 2014 (Local Time) from KACT Reporting Station
Overcast Overcast  
Wind Chill: 50°   Ceiling: 2400
Heat Index: 50°   Visibility: 10mi
Dew Point: 45°   Wind: 12mph
Humidity: 83%   Direction: 150°SSE
Pressure: 30.1"   Gusts: NA
Location:  31.85°N, 97.22°W
Report Text: KACT 211651Z 15010KT 10SM SCT013 OVC024 10/07 A3010 RMK AO2 SLP190 T01000072
Loading
Personal Weather Stations






























Interactive Weather Map New forecast layout! Learn more

10-Day Weather Forecast

Advertisements
Track Severe Weather on mobile